sensor_id;sensor_type;location;lat;lon;timestamp;P1;durP1;ratioP1;P2;durP2;ratioP2
8640;SDS011;4358;42.100;25.222;2023-04-15T00:00:48;2.17;;;1.67;;
8640;SDS011;4358;42.100;25.222;2023-04-15T00:03:16;1.93;;;1.73;;
8640;SDS011;4358;42.100;25.222;2023-04-15T00:05:43;2.37;;;2.10;;
8640;SDS011;4358;42.100;25.222;2023-04-15T00:08:10;3.03;;;2.00;;
8640;SDS011;4358;42.100;25.222;2023-04-15T00:10:38;2.30;;;1.60;;
8640;SDS011;4358;42.100;25.222;2023-04-15T00:13:08;2.00;;;1.80;;
8640;SDS011;4358;42.100;25.222;2023-04-15T00:15:35;2.23;;;1.70;;
8640;SDS011;4358;42.100;25.222;2023-04-15T00:18:02;2.87;;;1.80;;
8640;SDS011;4358;42.100;25.222;2023-04-15T00:20:29;1.87;;;1.77;;
8640;SDS011;4358;42.100;25.222;2023-04-15T00:22:56;3.67;;;2.40;;
8640;SDS011;4358;42.100;25.222;2023-04-15T00:25:24;2.87;;;1.97;;
8640;SDS011;4358;42.100;25.222;2023-04-15T00:27:52;2.20;;;2.00;;
8640;SDS011;4358;42.100;25.222;2023-04-15T00:30:19;2.00;;;1.80;;
8640;SDS011;4358;42.100;25.222;2023-04-15T00:32:46;3.23;;;1.90;;
8640;SDS011;4358;42.100;25.222;2023-04-15T00:35:13;2.70;;;1.90;;
8640;SDS011;4358;42.100;25.222;2023-04-15T00:37:40;2.90;;;2.20;;
8640;SDS011;4358;42.100;25.222;2023-04-15T00:40:09;3.97;;;2.00;;
8640;SDS011;4358;42.100;25.222;2023-04-15T00:42:38;2.93;;;2.10;;
8640;SDS011;4358;42.100;25.222;2023-04-15T00:45:07;2.00;;;1.80;;
8640;SDS011;4358;42.100;25.222;2023-04-15T00:47:34;3.90;;;2.07;;
8640;SDS011;4358;42.100;25.222;2023-04-15T00:50:03;2.10;;;1.90;;
8640;SDS011;4358;42.100;25.222;2023-04-15T00:52:30;4.57;;;2.20;;
8640;SDS011;4358;42.100;25.222;2023-04-15T00:54:57;3.67;;;2.10;;
8640;SDS011;4358;42.100;25.222;2023-04-15T00:57:24;2.43;;;2.03;;
8640;SDS011;4358;42.100;25.222;2023-04-15T00:59:53;2.10;;;1.90;;
8640;SDS011;4358;42.100;25.222;2023-04-15T01:02:22;2.73;;;2.07;;
8640;SDS011;4358;42.100;25.222;2023-04-15T01:04:50;2.53;;;1.90;;
8640;SDS011;4358;42.100;25.222;2023-04-15T01:07:17;4.13;;;2.30;;
8640;SDS011;4358;42.100;25.222;2023-04-15T01:09:44;4.57;;;2.77;;
8640;SDS011;4358;42.100;25.222;2023-04-15T01:12:12;3.13;;;2.53;;
8640;SDS011;4358;42.100;25.222;2023-04-15T01:14:40;3.80;;;2.73;;
8640;SDS011;4358;42.100;25.222;2023-04-15T01:17:07;5.20;;;3.80;;
8640;SDS011;4358;42.100;25.222;2023-04-15T01:19:36;4.43;;;4.03;;
8640;SDS011;4358;42.100;25.222;2023-04-15T01:22:03;4.93;;;3.90;;
8640;SDS011;4358;42.100;25.222;2023-04-15T01:24:31;6.73;;;3.97;;
8640;SDS011;4358;42.100;25.222;2023-04-15T01:27:00;5.00;;;3.83;;
8640;SDS011;4358;42.100;25.222;2023-04-15T01:29:28;7.87;;;4.77;;
8640;SDS011;4358;42.100;25.222;2023-04-15T01:31:55;7.00;;;5.27;;
8640;SDS011;4358;42.100;25.222;2023-04-15T01:34:22;6.47;;;4.67;;
8640;SDS011;4358;42.100;25.222;2023-04-15T01:36:49;6.63;;;4.77;;
8640;SDS011;4358;42.100;25.222;2023-04-15T01:39:16;7.33;;;4.57;;
8640;SDS011;4358;42.100;25.222;2023-04-15T01:41:43;7.57;;;4.53;;
8640;SDS011;4358;42.100;25.222;2023-04-15T01:44:12;5.97;;;4.30;;
8640;SDS011;4358;42.100;25.222;2023-04-15T01:46:39;4.97;;;4.00;;
8640;SDS011;4358;42.100;25.222;2023-04-15T01:49:05;7.57;;;4.10;;
8640;SDS011;4358;42.100;25.222;2023-04-15T01:51:32;5.57;;;3.70;;
8640;SDS011;4358;42.100;25.222;2023-04-15T01:53:59;5.23;;;3.53;;
8640;SDS011;4358;42.100;25.222;2023-04-15T01:56:26;4.77;;;3.63;;
8640;SDS011;4358;42.100;25.222;2023-04-15T01:58:53;7.63;;;4.40;;
8640;SDS011;4358;42.100;25.222;2023-04-15T02:01:21;5.03;;;3.87;;
8640;SDS011;4358;42.100;25.222;2023-04-15T02:03:48;4.10;;;3.53;;
8640;SDS011;4358;42.100;25.222;2023-04-15T02:06:14;6.57;;;4.30;;
8640;SDS011;4358;42.100;25.222;2023-04-15T02:08:42;6.40;;;4.47;;
8640;SDS011;4358;42.100;25.222;2023-04-15T02:11:09;5.80;;;4.27;;
8640;SDS011;4358;42.100;25.222;2023-04-15T02:13:36;5.90;;;4.30;;
8640;SDS011;4358;42.100;25.222;2023-04-15T02:16:03;6.73;;;4.50;;
8640;SDS011;4358;42.100;25.222;2023-04-15T02:18:31;8.40;;;5.00;;
8640;SDS011;4358;42.100;25.222;2023-04-15T02:20:59;5.80;;;3.80;;
8640;SDS011;4358;42.100;25.222;2023-04-15T02:23:26;6.63;;;4.00;;
8640;SDS011;4358;42.100;25.222;2023-04-15T02:25:52;5.50;;;3.70;;
8640;SDS011;4358;42.100;25.222;2023-04-15T02:28:19;4.77;;;3.83;;
8640;SDS011;4358;42.100;25.222;2023-04-15T02:30:47;4.30;;;3.67;;
8640;SDS011;4358;42.100;25.222;2023-04-15T02:33:15;4.90;;;3.20;;
8640;SDS011;4358;42.100;25.222;2023-04-15T02:35:43;3.63;;;3.23;;
8640;SDS011;4358;42.100;25.222;2023-04-15T02:38:10;4.20;;;3.00;;
8640;SDS011;4358;42.100;25.222;2023-04-15T02:40:36;4.30;;;2.73;;
8640;SDS011;4358;42.100;25.222;2023-04-15T02:43:03;3.23;;;2.80;;
8640;SDS011;4358;42.100;25.222;2023-04-15T02:45:31;4.60;;;3.10;;
8640;SDS011;4358;42.100;25.222;2023-04-15T02:47:58;4.97;;;3.50;;
8640;SDS011;4358;42.100;25.222;2023-04-15T02:50:28;6.30;;;3.37;;
8640;SDS011;4358;42.100;25.222;2023-04-15T02:52:57;6.13;;;3.87;;
8640;SDS011;4358;42.100;25.222;2023-04-15T02:55:25;7.10;;;3.03;;
8640;SDS011;4358;42.100;25.222;2023-04-15T02:57:52;5.50;;;3.67;;
8640;SDS011;4358;42.100;25.222;2023-04-15T03:00:19;4.13;;;3.13;;
8640;SDS011;4358;42.100;25.222;2023-04-15T03:02:45;3.87;;;3.30;;
8640;SDS011;4358;42.100;25.222;2023-04-15T03:05:16;4.07;;;3.30;;
8640;SDS011;4358;42.100;25.222;2023-04-15T03:07:43;4.13;;;3.57;;
8640;SDS011;4358;42.100;25.222;2023-04-15T03:10:11;4.63;;;3.37;;
8640;SDS011;4358;42.100;25.222;2023-04-15T03:12:38;4.37;;;3.10;;
8640;SDS011;4358;42.100;25.222;2023-04-15T03:15:05;6.50;;;3.57;;
8640;SDS011;4358;42.100;25.222;2023-04-15T03:17:33;4.40;;;3.10;;
8640;SDS011;4358;42.100;25.222;2023-04-15T03:20:00;4.57;;;3.57;;
8640;SDS011;4358;42.100;25.222;2023-04-15T03:22:29;4.53;;;4.13;;
8640;SDS011;4358;42.100;25.222;2023-04-15T03:24:56;7.53;;;5.37;;
8640;SDS011;4358;42.100;25.222;2023-04-15T03:27:24;4.63;;;4.17;;
8640;SDS011;4358;42.100;25.222;2023-04-15T03:29:51;4.20;;;3.73;;
8640;SDS011;4358;42.100;25.222;2023-04-15T03:32:18;5.43;;;4.10;;
8640;SDS011;4358;42.100;25.222;2023-04-15T03:34:45;4.33;;;3.63;;
8640;SDS011;4358;42.100;25.222;2023-04-15T03:37:11;4.20;;;3.77;;
8640;SDS011;4358;42.100;25.222;2023-04-15T03:39:38;3.43;;;3.10;;
8640;SDS011;4358;42.100;25.222;2023-04-15T03:42:05;4.63;;;3.93;;
8640;SDS011;4358;42.100;25.222;2023-04-15T03:44:34;4.33;;;3.93;;
8640;SDS011;4358;42.100;25.222;2023-04-15T03:47:01;3.97;;;3.57;;
8640;SDS011;4358;42.100;25.222;2023-04-15T03:49:28;5.03;;;4.00;;
8640;SDS011;4358;42.100;25.222;2023-04-15T03:51:55;6.90;;;3.77;;
8640;SDS011;4358;42.100;25.222;2023-04-15T03:54:21;5.00;;;4.03;;
8640;SDS011;4358;42.100;25.222;2023-04-15T03:56:48;4.70;;;3.87;;
8640;SDS011;4358;42.100;25.222;2023-04-15T03:59:15;7.07;;;4.23;;
8640;SDS011;4358;42.100;25.222;2023-04-15T04:01:43;5.43;;;4.17;;
8640;SDS011;4358;42.100;25.222;2023-04-15T04:04:10;5.83;;;4.53;;
8640;SDS011;4358;42.100;25.222;2023-04-15T04:06:37;5.17;;;4.50;;
8640;SDS011;4358;42.100;25.222;2023-04-15T04:09:03;4.90;;;4.40;;
8640;SDS011;4358;42.100;25.222;2023-04-15T04:11:30;6.27;;;4.53;;
8640;SDS011;4358;42.100;25.222;2023-04-15T04:13:57;5.73;;;4.87;;
8640;SDS011;4358;42.100;25.222;2023-04-15T04:16:24;7.00;;;4.57;;
8640;SDS011;4358;42.100;25.222;2023-04-15T04:18:52;7.10;;;4.90;;
8640;SDS011;4358;42.100;25.222;2023-04-15T04:21:19;6.67;;;4.83;;
8640;SDS011;4358;42.100;25.222;2023-04-15T04:23:46;5.10;;;4.60;;
8640;SDS011;4358;42.100;25.222;2023-04-15T04:26:13;7.27;;;5.23;;
8640;SDS011;4358;42.100;25.222;2023-04-15T04:28:40;7.43;;;5.40;;
8640;SDS011;4358;42.100;25.222;2023-04-15T04:31:07;6.30;;;4.73;;
8640;SDS011;4358;42.100;25.222;2023-04-15T04:33:34;6.97;;;5.00;;
8640;SDS011;4358;42.100;25.222;2023-04-15T04:36:02;6.50;;;5.80;;
8640;SDS011;4358;42.100;25.222;2023-04-15T04:38:29;6.33;;;5.53;;
8640;SDS011;4358;42.100;25.222;2023-04-15T04:40:56;7.60;;;5.30;;
8640;SDS011;4358;42.100;25.222;2023-04-15T04:43:23;5.90;;;5.30;;
8640;SDS011;4358;42.100;25.222;2023-04-15T04:45:50;5.93;;;5.37;;
8640;SDS011;4358;42.100;25.222;2023-04-15T04:48:17;8.00;;;5.20;;
8640;SDS011;4358;42.100;25.222;2023-04-15T04:50:44;6.23;;;5.47;;
8640;SDS011;4358;42.100;25.222;2023-04-15T04:53:12;7.70;;;6.17;;
8640;SDS011;4358;42.100;25.222;2023-04-15T04:55:40;8.70;;;7.03;;
8640;SDS011;4358;42.100;25.222;2023-04-15T04:58:07;11.33;;;7.60;;
8640;SDS011;4358;42.100;25.222;2023-04-15T05:00:33;7.23;;;6.43;;
8640;SDS011;4358;42.100;25.222;2023-04-15T05:03:02;6.10;;;5.37;;
8640;SDS011;4358;42.100;25.222;2023-04-15T05:05:29;7.53;;;5.00;;
8640;SDS011;4358;42.100;25.222;2023-04-15T05:07:56;7.73;;;5.13;;
8640;SDS011;4358;42.100;25.222;2023-04-15T05:10:24;5.27;;;4.77;;
8640;SDS011;4358;42.100;25.222;2023-04-15T05:12:51;7.37;;;5.53;;
8640;SDS011;4358;42.100;25.222;2023-04-15T05:15:18;7.03;;;5.80;;
8640;SDS011;4358;42.100;25.222;2023-04-15T05:17:44;12.70;;;8.13;;
8640;SDS011;4358;42.100;25.222;2023-04-15T05:20:12;11.57;;;8.90;;
8640;SDS011;4358;42.100;25.222;2023-04-15T05:22:39;8.10;;;6.13;;
8640;SDS011;4358;42.100;25.222;2023-04-15T05:25:06;7.90;;;6.30;;
8640;SDS011;4358;42.100;25.222;2023-04-15T05:27:35;8.37;;;6.53;;
8640;SDS011;4358;42.100;25.222;2023-04-15T05:30:02;9.43;;;6.73;;
8640;SDS011;4358;42.100;25.222;2023-04-15T06:27:47;14.93;;;11.37;;
8640;SDS011;4358;42.100;25.222;2023-04-15T06:30:14;13.70;;;10.77;;
8640;SDS011;4358;42.100;25.222;2023-04-15T06:32:41;16.97;;;11.80;;
8640;SDS011;4358;42.100;25.222;2023-04-15T06:35:08;12.97;;;10.47;;
8640;SDS011;4358;42.100;25.222;2023-04-15T06:37:35;15.73;;;11.93;;
8640;SDS011;4358;42.100;25.222;2023-04-15T06:40:02;15.80;;;11.47;;
8640;SDS011;4358;42.100;25.222;2023-04-15T06:42:30;13.00;;;10.13;;
8640;SDS011;4358;42.100;25.222;2023-04-15T06:44:58;14.97;;;10.87;;
8640;SDS011;4358;42.100;25.222;2023-04-15T06:47:25;14.60;;;10.97;;
8640;SDS011;4358;42.100;25.222;2023-04-15T06:49:52;14.13;;;10.27;;
8640;SDS011;4358;42.100;25.222;2023-04-15T06:52:19;14.60;;;10.73;;
8640;SDS011;4358;42.100;25.222;2023-04-15T06:54:45;13.83;;;11.03;;
8640;SDS011;4358;42.100;25.222;2023-04-15T06:57:12;14.30;;;10.70;;
8640;SDS011;4358;42.100;25.222;2023-04-15T06:59:39;14.03;;;9.97;;
8640;SDS011;4358;42.100;25.222;2023-04-15T07:02:08;14.30;;;10.70;;
8640;SDS011;4358;42.100;25.222;2023-04-15T07:04:38;15.03;;;11.10;;
8640;SDS011;4358;42.100;25.222;2023-04-15T07:07:05;13.07;;;9.87;;
8640;SDS011;4358;42.100;25.222;2023-04-15T07:09:32;13.03;;;10.17;;
8640;SDS011;4358;42.100;25.222;2023-04-15T07:11:59;16.23;;;10.53;;
8640;SDS011;4358;42.100;25.222;2023-04-15T07:14:26;16.00;;;10.40;;
8640;SDS011;4358;42.100;25.222;2023-04-15T07:16:53;12.77;;;9.83;;
8640;SDS011;4358;42.100;25.222;2023-04-15T07:19:21;16.30;;;12.27;;
8640;SDS011;4358;42.100;25.222;2023-04-15T07:21:48;13.37;;;11.00;;
8640;SDS011;4358;42.100;25.222;2023-04-15T07:24:15;13.70;;;10.37;;
8640;SDS011;4358;42.100;25.222;2023-04-15T07:26:44;12.47;;;9.70;;
8640;SDS011;4358;42.100;25.222;2023-04-15T07:29:11;14.73;;;9.50;;
8640;SDS011;4358;42.100;25.222;2023-04-15T07:31:38;13.33;;;10.07;;
8640;SDS011;4358;42.100;25.222;2023-04-15T07:34:06;14.67;;;10.50;;
8640;SDS011;4358;42.100;25.222;2023-04-15T07:36:34;16.87;;;9.83;;
8640;SDS011;4358;42.100;25.222;2023-04-15T07:39:01;11.80;;;9.43;;
8640;SDS011;4358;42.100;25.222;2023-04-15T07:41:28;12.97;;;10.03;;
8640;SDS011;4358;42.100;25.222;2023-04-15T07:43:55;11.43;;;8.63;;
8640;SDS011;4358;42.100;25.222;2023-04-15T07:46:22;11.73;;;8.47;;
8640;SDS011;4358;42.100;25.222;2023-04-15T07:48:51;11.63;;;8.80;;
8640;SDS011;4358;42.100;25.222;2023-04-15T07:51:19;14.97;;;9.53;;
8640;SDS011;4358;42.100;25.222;2023-04-15T07:53:47;13.93;;;8.50;;
8640;SDS011;4358;42.100;25.222;2023-04-15T07:56:14;11.70;;;8.80;;
8640;SDS011;4358;42.100;25.222;2023-04-15T07:58:41;11.90;;;8.50;;
8640;SDS011;4358;42.100;25.222;2023-04-15T08:01:08;11.07;;;7.90;;
8640;SDS011;4358;42.100;25.222;2023-04-15T08:03:36;11.60;;;9.10;;
8640;SDS011;4358;42.100;25.222;2023-04-15T08:06:03;11.77;;;8.17;;
8640;SDS011;4358;42.100;25.222;2023-04-15T08:08:30;10.13;;;8.00;;
8640;SDS011;4358;42.100;25.222;2023-04-15T08:10:59;12.53;;;8.97;;
8640;SDS011;4358;42.100;25.222;2023-04-15T08:13:26;12.40;;;7.60;;
8640;SDS011;4358;42.100;25.222;2023-04-15T08:15:56;11.43;;;8.20;;
8640;SDS011;4358;42.100;25.222;2023-04-15T08:18:43;9.63;;;6.80;;
8640;SDS011;4358;42.100;25.222;2023-04-15T08:21:10;15.77;;;6.80;;
8640;SDS011;4358;42.100;25.222;2023-04-15T08:23:38;7.97;;;6.37;;
8640;SDS011;4358;42.100;25.222;2023-04-15T08:26:06;8.50;;;6.13;;
8640;SDS011;4358;42.100;25.222;2023-04-15T08:28:33;9.43;;;6.47;;
8640;SDS011;4358;42.100;25.222;2023-04-15T08:31:01;10.10;;;6.50;;
8640;SDS011;4358;42.100;25.222;2023-04-15T08:33:28;6.33;;;5.40;;
8640;SDS011;4358;42.100;25.222;2023-04-15T08:35:54;7.27;;;5.40;;
8640;SDS011;4358;42.100;25.222;2023-04-15T08:38:22;9.53;;;5.63;;
8640;SDS011;4358;42.100;25.222;2023-04-15T08:40:49;7.40;;;5.90;;
8640;SDS011;4358;42.100;25.222;2023-04-15T08:43:20;8.80;;;6.03;;
8640;SDS011;4358;42.100;25.222;2023-04-15T08:45:49;7.83;;;5.63;;
8640;SDS011;4358;42.100;25.222;2023-04-15T08:48:17;7.57;;;5.53;;
8640;SDS011;4358;42.100;25.222;2023-04-15T08:50:44;8.13;;;6.30;;
8640;SDS011;4358;42.100;25.222;2023-04-15T08:53:12;8.07;;;5.30;;
8640;SDS011;4358;42.100;25.222;2023-04-15T08:55:41;5.93;;;4.90;;
8640;SDS011;4358;42.100;25.222;2023-04-15T08:58:10;6.30;;;5.17;;
8640;SDS011;4358;42.100;25.222;2023-04-15T09:00:39;5.37;;;4.33;;
8640;SDS011;4358;42.100;25.222;2023-04-15T09:03:06;5.47;;;4.20;;
8640;SDS011;4358;42.100;25.222;2023-04-15T09:05:34;5.33;;;4.20;;
8640;SDS011;4358;42.100;25.222;2023-04-15T09:08:01;8.90;;;4.20;;
8640;SDS011;4358;42.100;25.222;2023-04-15T09:10:28;4.43;;;2.77;;
8640;SDS011;4358;42.100;25.222;2023-04-15T09:12:56;6.10;;;3.90;;
8640;SDS011;4358;42.100;25.222;2023-04-15T09:15:23;5.13;;;3.87;;
8640;SDS011;4358;42.100;25.222;2023-04-15T09:17:52;5.07;;;3.93;;
8640;SDS011;4358;42.100;25.222;2023-04-15T09:20:19;5.60;;;4.53;;
8640;SDS011;4358;42.100;25.222;2023-04-15T09:22:46;6.80;;;4.40;;
8640;SDS011;4358;42.100;25.222;2023-04-15T09:25:24;4.27;;;3.30;;
8640;SDS011;4358;42.100;25.222;2023-04-15T09:27:52;6.10;;;3.80;;
8640;SDS011;4358;42.100;25.222;2023-04-15T09:30:20;9.83;;;3.07;;
8640;SDS011;4358;42.100;25.222;2023-04-15T09:32:48;3.67;;;2.63;;
8640;SDS011;4358;42.100;25.222;2023-04-15T09:35:17;3.67;;;2.40;;
8640;SDS011;4358;42.100;25.222;2023-04-15T09:37:45;3.57;;;2.53;;
8640;SDS011;4358;42.100;25.222;2023-04-15T09:40:12;4.63;;;2.67;;
8640;SDS011;4358;42.100;25.222;2023-04-15T09:42:53;3.50;;;2.70;;
8640;SDS011;4358;42.100;25.222;2023-04-15T09:45:20;2.73;;;2.30;;
8640;SDS011;4358;42.100;25.222;2023-04-15T09:47:48;4.00;;;2.33;;
8640;SDS011;4358;42.100;25.222;2023-04-15T09:50:18;4.07;;;2.23;;
8640;SDS011;4358;42.100;25.222;2023-04-15T09:52:46;3.40;;;2.37;;
8640;SDS011;4358;42.100;25.222;2023-04-15T09:55:13;3.80;;;2.57;;
8640;SDS011;4358;42.100;25.222;2023-04-15T09:57:41;3.33;;;1.77;;
8640;SDS011;4358;42.100;25.222;2023-04-15T10:00:08;2.73;;;1.80;;
8640;SDS011;4358;42.100;25.222;2023-04-15T10:02:36;3.53;;;1.60;;
8640;SDS011;4358;42.100;25.222;2023-04-15T10:05:03;2.40;;;1.60;;
8640;SDS011;4358;42.100;25.222;2023-04-15T10:07:33;4.43;;;2.10;;
8640;SDS011;4358;42.100;25.222;2023-04-15T10:10:00;3.63;;;2.03;;
8640;SDS011;4358;42.100;25.222;2023-04-15T10:12:30;1.77;;;1.40;;
8640;SDS011;4358;42.100;25.222;2023-04-15T10:14:58;1.30;;;1.20;;
8640;SDS011;4358;42.100;25.222;2023-04-15T10:17:26;2.13;;;1.40;;
8640;SDS011;4358;42.100;25.222;2023-04-15T10:19:54;2.47;;;1.20;;
8640;SDS011;4358;42.100;25.222;2023-04-15T10:22:21;7.00;;;1.53;;
8640;SDS011;4358;42.100;25.222;2023-04-15T10:24:49;3.63;;;1.43;;
8640;SDS011;4358;42.100;25.222;2023-04-15T10:27:17;2.80;;;1.63;;
8640;SDS011;4358;42.100;25.222;2023-04-15T10:29:46;2.90;;;1.57;;
8640;SDS011;4358;42.100;25.222;2023-04-15T10:32:14;1.60;;;1.30;;
8640;SDS011;4358;42.100;25.222;2023-04-15T10:34:41;2.03;;;1.50;;
8640;SDS011;4358;42.100;25.222;2023-04-15T10:37:09;4.47;;;1.90;;
8640;SDS011;4358;42.100;25.222;2023-04-15T10:39:40;2.07;;;1.70;;
8640;SDS011;4358;42.100;25.222;2023-04-15T10:42:10;2.33;;;1.70;;
8640;SDS011;4358;42.100;25.222;2023-04-15T10:44:38;2.43;;;1.53;;
8640;SDS011;4358;42.100;25.222;2023-04-15T10:47:10;2.43;;;1.40;;
8640;SDS011;4358;42.100;25.222;2023-04-15T10:49:42;6.53;;;2.10;;
8640;SDS011;4358;42.100;25.222;2023-04-15T10:52:11;2.67;;;1.37;;
8640;SDS011;4358;42.100;25.222;2023-04-15T10:54:39;3.07;;;1.60;;
8640;SDS011;4358;42.100;25.222;2023-04-15T10:57:07;2.37;;;1.53;;
8640;SDS011;4358;42.100;25.222;2023-04-15T10:59:37;2.33;;;1.27;;
8640;SDS011;4358;42.100;25.222;2023-04-15T11:02:32;2.30;;;1.47;;
8640;SDS011;4358;42.100;25.222;2023-04-15T11:05:04;3.00;;;1.50;;
8640;SDS011;4358;42.100;25.222;2023-04-15T11:07:32;2.43;;;1.70;;
8640;SDS011;4358;42.100;25.222;2023-04-15T11:10:00;2.70;;;1.47;;
8640;SDS011;4358;42.100;25.222;2023-04-15T11:12:32;2.00;;;1.33;;
8640;SDS011;4358;42.100;25.222;2023-04-15T11:17:54;1.80;;;1.60;;
8640;SDS011;4358;42.100;25.222;2023-04-15T11:20:21;1.10;;;1.00;;
8640;SDS011;4358;42.100;25.222;2023-04-15T11:22:49;2.50;;;1.70;;
8640;SDS011;4358;42.100;25.222;2023-04-15T11:25:22;3.40;;;1.50;;
8640;SDS011;4358;42.100;25.222;2023-04-15T11:27:50;1.40;;;1.30;;
8640;SDS011;4358;42.100;25.222;2023-04-15T11:30:19;3.13;;;1.50;;
8640;SDS011;4358;42.100;25.222;2023-04-15T11:32:48;1.80;;;1.30;;
8640;SDS011;4358;42.100;25.222;2023-04-15T11:35:15;1.63;;;1.30;;
8640;SDS011;4358;42.100;25.222;2023-04-15T11:37:43;3.83;;;1.63;;
8640;SDS011;4358;42.100;25.222;2023-04-15T11:40:10;1.47;;;1.30;;
8640;SDS011;4358;42.100;25.222;2023-04-15T11:42:38;5.23;;;1.47;;
8640;SDS011;4358;42.100;25.222;2023-04-15T11:45:05;2.50;;;1.37;;
8640;SDS011;4358;42.100;25.222;2023-04-15T11:47:33;3.37;;;1.50;;
8640;SDS011;4358;42.100;25.222;2023-04-15T11:50:14;2.00;;;1.37;;
8640;SDS011;4358;42.100;25.222;2023-04-15T11:52:51;3.80;;;1.30;;
8640;SDS011;4358;42.100;25.222;2023-04-15T11:55:18;2.30;;;1.37;;
8640;SDS011;4358;42.100;25.222;2023-04-15T11:57:45;4.93;;;1.60;;
8640;SDS011;4358;42.100;25.222;2023-04-15T12:00:12;2.40;;;1.30;;
8640;SDS011;4358;42.100;25.222;2023-04-15T12:02:41;2.90;;;1.43;;
8640;SDS011;4358;42.100;25.222;2023-04-15T12:05:08;2.07;;;1.40;;
8640;SDS011;4358;42.100;25.222;2023-04-15T12:10:25;1.97;;;1.20;;
8640;SDS011;4358;42.100;25.222;2023-04-15T12:12:52;4.10;;;1.40;;
8640;SDS011;4358;42.100;25.222;2023-04-15T12:15:20;1.20;;;1.10;;
8640;SDS011;4358;42.100;25.222;2023-04-15T12:17:48;1.33;;;1.17;;
8640;SDS011;4358;42.100;25.222;2023-04-15T12:20:19;1.40;;;1.30;;
8640;SDS011;4358;42.100;25.222;2023-04-15T12:22:47;2.13;;;1.40;;
8640;SDS011;4358;42.100;25.222;2023-04-15T12:25:15;1.43;;;1.10;;
8640;SDS011;4358;42.100;25.222;2023-04-15T12:27:49;2.03;;;1.27;;
8640;SDS011;4358;42.100;25.222;2023-04-15T12:30:17;2.20;;;1.40;;
8640;SDS011;4358;42.100;25.222;2023-04-15T12:32:44;1.90;;;1.40;;
8640;SDS011;4358;42.100;25.222;2023-04-15T12:35:12;2.43;;;1.30;;
8640;SDS011;4358;42.100;25.222;2023-04-15T12:37:38;2.20;;;1.40;;
8640;SDS011;4358;42.100;25.222;2023-04-15T12:40:07;3.73;;;1.50;;
8640;SDS011;4358;42.100;25.222;2023-04-15T12:42:35;2.47;;;1.50;;
8640;SDS011;4358;42.100;25.222;2023-04-15T12:45:02;2.87;;;1.40;;
8640;SDS011;4358;42.100;25.222;2023-04-15T12:47:29;2.93;;;1.40;;
8640;SDS011;4358;42.100;25.222;2023-04-15T12:49:56;4.73;;;1.53;;
8640;SDS011;4358;42.100;25.222;2023-04-15T12:52:23;2.07;;;1.50;;
8640;SDS011;4358;42.100;25.222;2023-04-15T12:54:50;1.90;;;1.40;;
8640;SDS011;4358;42.100;25.222;2023-04-15T12:57:18;2.13;;;1.40;;
8640;SDS011;4358;42.100;25.222;2023-04-15T12:59:47;1.40;;;1.20;;
8640;SDS011;4358;42.100;25.222;2023-04-15T13:02:13;2.60;;;1.40;;
8640;SDS011;4358;42.100;25.222;2023-04-15T13:04:40;2.60;;;1.40;;
8640;SDS011;4358;42.100;25.222;2023-04-15T13:07:07;2.57;;;1.50;;
8640;SDS011;4358;42.100;25.222;2023-04-15T13:09:34;3.63;;;1.60;;
8640;SDS011;4358;42.100;25.222;2023-04-15T13:12:02;3.37;;;1.77;;
8640;SDS011;4358;42.100;25.222;2023-04-15T13:14:29;2.57;;;1.63;;
8640;SDS011;4358;42.100;25.222;2023-04-15T13:16:58;4.60;;;1.50;;
8640;SDS011;4358;42.100;25.222;2023-04-15T13:19:24;2.57;;;1.80;;
8640;SDS011;4358;42.100;25.222;2023-04-15T13:21:51;3.53;;;1.90;;
8640;SDS011;4358;42.100;25.222;2023-04-15T13:24:18;3.50;;;1.90;;
8640;SDS011;4358;42.100;25.222;2023-04-15T13:26:45;3.03;;;1.90;;
8640;SDS011;4358;42.100;25.222;2023-04-15T13:29:12;2.70;;;1.90;;
8640;SDS011;4358;42.100;25.222;2023-04-15T13:31:39;3.33;;;2.10;;
8640;SDS011;4358;42.100;25.222;2023-04-15T13:34:07;3.63;;;2.07;;
8640;SDS011;4358;42.100;25.222;2023-04-15T13:36:34;3.73;;;2.30;;
8640;SDS011;4358;42.100;25.222;2023-04-15T13:39:00;5.43;;;2.00;;
8640;SDS011;4358;42.100;25.222;2023-04-15T13:41:29;3.50;;;2.07;;
8640;SDS011;4358;42.100;25.222;2023-04-15T13:43:56;5.77;;;2.10;;
8640;SDS011;4358;42.100;25.222;2023-04-15T13:46:23;3.07;;;2.37;;
8640;SDS011;4358;42.100;25.222;2023-04-15T13:48:50;3.37;;;2.20;;
8640;SDS011;4358;42.100;25.222;2023-04-15T13:51:18;4.97;;;3.57;;
8640;SDS011;4358;42.100;25.222;2023-04-15T13:53:45;3.70;;;2.60;;
8640;SDS011;4358;42.100;25.222;2023-04-15T13:56:12;2.10;;;1.77;;
8640;SDS011;4358;42.100;25.222;2023-04-15T13:58:39;5.07;;;2.00;;
8640;SDS011;4358;42.100;25.222;2023-04-15T14:01:06;4.50;;;1.93;;
8640;SDS011;4358;42.100;25.222;2023-04-15T14:03:33;4.40;;;1.73;;
8640;SDS011;4358;42.100;25.222;2023-04-15T14:06:00;3.07;;;1.70;;
8640;SDS011;4358;42.100;25.222;2023-04-15T14:08:28;3.47;;;1.80;;
8640;SDS011;4358;42.100;25.222;2023-04-15T14:10:55;3.27;;;1.70;;
8640;SDS011;4358;42.100;25.222;2023-04-15T14:13:22;3.40;;;1.33;;
8640;SDS011;4358;42.100;25.222;2023-04-15T14:15:49;3.83;;;1.77;;
8640;SDS011;4358;42.100;25.222;2023-04-15T14:18:16;5.07;;;1.47;;
8640;SDS011;4358;42.100;25.222;2023-04-15T14:20:43;5.90;;;1.70;;
8640;SDS011;4358;42.100;25.222;2023-04-15T14:23:10;5.30;;;1.77;;
8640;SDS011;4358;42.100;25.222;2023-04-15T14:25:38;3.60;;;1.70;;
8640;SDS011;4358;42.100;25.222;2023-04-15T14:28:05;4.63;;;1.53;;
8640;SDS011;4358;42.100;25.222;2023-04-15T14:30:32;2.53;;;1.40;;
8640;SDS011;4358;42.100;25.222;2023-04-15T14:32:59;3.77;;;1.20;;
8640;SDS011;4358;42.100;25.222;2023-04-15T14:35:26;5.27;;;2.07;;
8640;SDS011;4358;42.100;25.222;2023-04-15T14:37:53;2.87;;;1.73;;
8640;SDS011;4358;42.100;25.222;2023-04-15T14:40:19;3.00;;;1.90;;
8640;SDS011;4358;42.100;25.222;2023-04-15T14:42:48;3.37;;;2.03;;
8640;SDS011;4358;42.100;25.222;2023-04-15T14:45:15;2.47;;;1.50;;
8640;SDS011;4358;42.100;25.222;2023-04-15T14:47:42;3.93;;;1.50;;
8640;SDS011;4358;42.100;25.222;2023-04-15T14:50:09;4.30;;;1.40;;
8640;SDS011;4358;42.100;25.222;2023-04-15T14:52:36;2.23;;;1.10;;
8640;SDS011;4358;42.100;25.222;2023-04-15T14:55:04;4.07;;;1.70;;
8640;SDS011;4358;42.100;25.222;2023-04-15T14:57:31;4.07;;;1.60;;
8640;SDS011;4358;42.100;25.222;2023-04-15T14:59:59;1.53;;;1.40;;
8640;SDS011;4358;42.100;25.222;2023-04-15T15:02:27;3.10;;;1.80;;
8640;SDS011;4358;42.100;25.222;2023-04-15T15:04:55;3.20;;;1.60;;
8640;SDS011;4358;42.100;25.222;2023-04-15T15:07:23;3.03;;;1.50;;
8640;SDS011;4358;42.100;25.222;2023-04-15T15:09:50;2.70;;;1.47;;
8640;SDS011;4358;42.100;25.222;2023-04-15T15:12:16;1.63;;;1.30;;
8640;SDS011;4358;42.100;25.222;2023-04-15T15:14:43;4.43;;;2.07;;
8640;SDS011;4358;42.100;25.222;2023-04-15T15:17:11;2.00;;;1.80;;
8640;SDS011;4358;42.100;25.222;2023-04-15T15:19:38;3.13;;;1.93;;
8640;SDS011;4358;42.100;25.222;2023-04-15T15:22:05;4.03;;;1.80;;
8640;SDS011;4358;42.100;25.222;2023-04-15T15:24:32;4.30;;;1.80;;
8640;SDS011;4358;42.100;25.222;2023-04-15T15:27:01;3.40;;;1.67;;
8640;SDS011;4358;42.100;25.222;2023-04-15T15:29:28;3.77;;;1.60;;
8640;SDS011;4358;42.100;25.222;2023-04-15T15:31:54;3.03;;;1.30;;
8640;SDS011;4358;42.100;25.222;2023-04-15T15:34:23;5.00;;;1.37;;
8640;SDS011;4358;42.100;25.222;2023-04-15T15:36:50;3.70;;;1.43;;
8640;SDS011;4358;42.100;25.222;2023-04-15T15:39:17;2.27;;;1.33;;
8640;SDS011;4358;42.100;25.222;2023-04-15T15:41:44;1.50;;;1.10;;
8640;SDS011;4358;42.100;25.222;2023-04-15T15:44:10;2.87;;;1.50;;
8640;SDS011;4358;42.100;25.222;2023-04-15T15:46:37;2.23;;;1.43;;
8640;SDS011;4358;42.100;25.222;2023-04-15T15:49:04;3.33;;;1.53;;
8640;SDS011;4358;42.100;25.222;2023-04-15T15:51:32;5.63;;;1.60;;
8640;SDS011;4358;42.100;25.222;2023-04-15T15:53:59;3.20;;;1.47;;
8640;SDS011;4358;42.100;25.222;2023-04-15T15:56:26;3.17;;;1.50;;
8640;SDS011;4358;42.100;25.222;2023-04-15T15:58:53;4.13;;;1.37;;
8640;SDS011;4358;42.100;25.222;2023-04-15T16:01:20;3.13;;;1.40;;